sensor_id;sensor_type;location;lat;lon;timestamp;temperature;humidity
306;DHT22;137;48.578;9.180;2022-08-05T00:01:46;26.00;98.20
306;DHT22;137;48.578;9.180;2022-08-05T00:04:13;26.00;98.20
306;DHT22;137;48.578;9.180;2022-08-05T00:06:40;26.00;98.20
306;DHT22;137;48.578;9.180;2022-08-05T00:09:07;26.00;98.20
306;DHT22;137;48.578;9.180;2022-08-05T00:11:34;25.90;98.20
306;DHT22;137;48.578;9.180;2022-08-05T00:14:01;25.80;98.20
306;DHT22;137;48.578;9.180;2022-08-05T00:16:29;25.70;98.20
306;DHT22;137;48.578;9.180;2022-08-05T00:18:56;25.70;98.20
306;DHT22;137;48.578;9.180;2022-08-05T01:08:28;24.10;98.20
306;DHT22;137;48.578;9.180;2022-08-05T01:10:58;24.00;98.20
306;DHT22;137;48.578;9.180;2022-08-05T01:13:44;24.00;98.20
306;DHT22;137;48.578;9.180;2022-08-05T01:16:17;23.90;98.20
306;DHT22;137;48.578;9.180;2022-08-05T01:18:51;23.90;98.20
306;DHT22;137;48.578;9.180;2022-08-05T01:21:44;23.90;98.20
306;DHT22;137;48.578;9.180;2022-08-05T01:24:34;23.80;98.20
306;DHT22;137;48.578;9.180;2022-08-05T01:27:15;23.80;98.20
306;DHT22;137;48.578;9.180;2022-08-05T01:29:53;23.70;98.20
306;DHT22;137;48.578;9.180;2022-08-05T01:32:24;23.70;98.20
306;DHT22;137;48.578;9.180;2022-08-05T01:34:56;23.70;98.20
306;DHT22;137;48.578;9.180;2022-08-05T01:37:36;23.80;98.20
306;DHT22;137;48.578;9.180;2022-08-05T01:40:06;23.80;98.20
306;DHT22;137;48.578;9.180;2022-08-05T01:42:35;23.90;98.20
306;DHT22;137;48.578;9.180;2022-08-05T01:45:06;23.90;98.20
306;DHT22;137;48.578;9.180;2022-08-05T01:47:35;24.00;98.20
306;DHT22;137;48.578;9.180;2022-08-05T01:50:04;24.00;98.20
306;DHT22;137;48.578;9.180;2022-08-05T01:52:34;24.00;98.20
306;DHT22;137;48.578;9.180;2022-08-05T01:55:05;24.10;98.20
306;DHT22;137;48.578;9.180;2022-08-05T01:57:37;24.10;98.20
306;DHT22;137;48.578;9.180;2022-08-05T02:00:08;24.10;98.20
306;DHT22;137;48.578;9.180;2022-08-05T02:02:37;24.10;98.20
306;DHT22;137;48.578;9.180;2022-08-05T02:05:08;24.10;98.20
306;DHT22;137;48.578;9.180;2022-08-05T02:07:37;24.10;98.20
306;DHT22;137;48.578;9.180;2022-08-05T02:10:05;24.10;98.20
306;DHT22;137;48.578;9.180;2022-08-05T02:12:36;24.10;98.20
306;DHT22;137;48.578;9.180;2022-08-05T02:15:08;24.10;98.20
306;DHT22;137;48.578;9.180;2022-08-05T02:17:40;24.20;98.20
306;DHT22;137;48.578;9.180;2022-08-05T02:20:16;24.30;98.20
306;DHT22;137;48.578;9.180;2022-08-05T02:22:45;24.30;98.20
306;DHT22;137;48.578;9.180;2022-08-05T02:25:17;24.40;98.20
306;DHT22;137;48.578;9.180;2022-08-05T02:27:45;24.40;98.20
306;DHT22;137;48.578;9.180;2022-08-05T02:30:16;24.40;98.20
306;DHT22;137;48.578;9.180;2022-08-05T02:32:46;24.30;98.20
306;DHT22;137;48.578;9.180;2022-08-05T02:35:19;24.30;98.20
306;DHT22;137;48.578;9.180;2022-08-05T02:37:46;24.30;98.20
306;DHT22;137;48.578;9.180;2022-08-05T02:40:13;24.30;98.20
306;DHT22;137;48.578;9.180;2022-08-05T02:42:42;24.30;98.20
306;DHT22;137;48.578;9.180;2022-08-05T02:45:10;24.30;98.20
306;DHT22;137;48.578;9.180;2022-08-05T02:47:39;24.20;98.20
306;DHT22;137;48.578;9.180;2022-08-05T02:50:07;24.10;98.20
306;DHT22;137;48.578;9.180;2022-08-05T02:52:35;23.90;98.20
306;DHT22;137;48.578;9.180;2022-08-05T02:55:04;23.80;98.20
306;DHT22;137;48.578;9.180;2022-08-05T02:57:32;23.80;98.20
306;DHT22;137;48.578;9.180;2022-08-05T03:00:00;23.70;98.20
306;DHT22;137;48.578;9.180;2022-08-05T03:02:30;23.70;98.20
306;DHT22;137;48.578;9.180;2022-08-05T03:05:01;23.70;98.20
306;DHT22;137;48.578;9.180;2022-08-05T03:07:28;23.70;98.20
306;DHT22;137;48.578;9.180;2022-08-05T03:09:56;23.60;98.20
306;DHT22;137;48.578;9.180;2022-08-05T03:12:29;23.60;98.20
306;DHT22;137;48.578;9.180;2022-08-05T03:14:56;23.60;98.20
306;DHT22;137;48.578;9.180;2022-08-05T03:17:23;23.60;98.20
306;DHT22;137;48.578;9.180;2022-08-05T03:19:50;23.60;98.20
306;DHT22;137;48.578;9.180;2022-08-05T03:22:18;23.50;98.20
306;DHT22;137;48.578;9.180;2022-08-05T03:24:46;23.30;98.20
306;DHT22;137;48.578;9.180;2022-08-05T03:27:14;23.30;98.20
306;DHT22;137;48.578;9.180;2022-08-05T03:29:41;23.20;98.20
306;DHT22;137;48.578;9.180;2022-08-05T03:32:08;23.20;98.20
306;DHT22;137;48.578;9.180;2022-08-05T03:34:36;23.10;98.20
306;DHT22;137;48.578;9.180;2022-08-05T03:37:04;23.10;98.20
306;DHT22;137;48.578;9.180;2022-08-05T03:39:33;23.20;98.20
306;DHT22;137;48.578;9.180;2022-08-05T03:42:00;23.10;98.20
306;DHT22;137;48.578;9.180;2022-08-05T03:44:26;23.10;98.20
306;DHT22;137;48.578;9.180;2022-08-05T03:46:53;23.10;98.20
306;DHT22;137;48.578;9.180;2022-08-05T03:49:20;23.00;98.20
306;DHT22;137;48.578;9.180;2022-08-05T03:51:55;23.00;98.20
306;DHT22;137;48.578;9.180;2022-08-05T03:54:30;22.90;98.20
306;DHT22;137;48.578;9.180;2022-08-05T03:57:01;23.00;98.20
306;DHT22;137;48.578;9.180;2022-08-05T03:59:34;22.90;98.20
306;DHT22;137;48.578;9.180;2022-08-05T04:02:01;22.90;98.20
306;DHT22;137;48.578;9.180;2022-08-05T04:04:30;22.80;98.20
306;DHT22;137;48.578;9.180;2022-08-05T04:06:58;22.80;98.20
306;DHT22;137;48.578;9.180;2022-08-05T04:09:26;22.70;98.20
306;DHT22;137;48.578;9.180;2022-08-05T04:11:53;22.70;98.20
306;DHT22;137;48.578;9.180;2022-08-05T04:14:23;22.70;98.20
306;DHT22;137;48.578;9.180;2022-08-05T04:16:50;22.70;98.20
306;DHT22;137;48.578;9.180;2022-08-05T04:19:17;22.70;98.20
306;DHT22;137;48.578;9.180;2022-08-05T04:21:44;22.70;98.20
306;DHT22;137;48.578;9.180;2022-08-05T04:24:11;22.70;98.20
306;DHT22;137;48.578;9.180;2022-08-05T04:26:38;22.70;98.20
306;DHT22;137;48.578;9.180;2022-08-05T04:29:04;22.70;98.20
306;DHT22;137;48.578;9.180;2022-08-05T04:31:33;22.70;98.20
306;DHT22;137;48.578;9.180;2022-08-05T04:34:00;22.80;98.20
306;DHT22;137;48.578;9.180;2022-08-05T04:36:27;22.80;98.20
306;DHT22;137;48.578;9.180;2022-08-05T04:38:53;22.90;98.20
306;DHT22;137;48.578;9.180;2022-08-05T04:41:22;22.90;98.20
306;DHT22;137;48.578;9.180;2022-08-05T04:43:48;22.90;98.20
306;DHT22;137;48.578;9.180;2022-08-05T04:46:15;22.60;98.20
306;DHT22;137;48.578;9.180;2022-08-05T04:48:43;22.40;98.20
306;DHT22;137;48.578;9.180;2022-08-05T04:51:10;22.40;98.20
306;DHT22;137;48.578;9.180;2022-08-05T04:53:37;22.40;98.20
306;DHT22;137;48.578;9.180;2022-08-05T04:56:05;22.30;98.20
306;DHT22;137;48.578;9.180;2022-08-05T04:58:33;22.40;98.20
306;DHT22;137;48.578;9.180;2022-08-05T05:00:59;22.50;98.20
306;DHT22;137;48.578;9.180;2022-08-05T05:03:26;22.60;98.20
306;DHT22;137;48.578;9.180;2022-08-05T05:05:54;22.70;98.20
306;DHT22;137;48.578;9.180;2022-08-05T05:08:21;22.70;98.20
306;DHT22;137;48.578;9.180;2022-08-05T05:10:48;22.70;98.20
306;DHT22;137;48.578;9.180;2022-08-05T05:13:16;22.70;98.20
306;DHT22;137;48.578;9.180;2022-08-05T05:15:44;22.80;98.20
306;DHT22;137;48.578;9.180;2022-08-05T05:18:12;22.80;98.20
306;DHT22;137;48.578;9.180;2022-08-05T05:20:41;22.80;98.20
306;DHT22;137;48.578;9.180;2022-08-05T05:23:09;23.00;98.20
306;DHT22;137;48.578;9.180;2022-08-05T05:25:37;23.20;98.20
306;DHT22;137;48.578;9.180;2022-08-05T05:28:05;23.50;98.20
306;DHT22;137;48.578;9.180;2022-08-05T05:30:32;23.90;98.20
306;DHT22;137;48.578;9.180;2022-08-05T05:33:00;24.20;98.20
306;DHT22;137;48.578;9.180;2022-08-05T05:35:27;24.50;98.20
306;DHT22;137;48.578;9.180;2022-08-05T05:37:56;24.90;98.20
306;DHT22;137;48.578;9.180;2022-08-05T05:40:27;25.10;98.20
306;DHT22;137;48.578;9.180;2022-08-05T05:42:54;25.50;98.20
306;DHT22;137;48.578;9.180;2022-08-05T05:45:21;25.80;98.20
306;DHT22;137;48.578;9.180;2022-08-05T05:47:48;26.10;98.20
306;DHT22;137;48.578;9.180;2022-08-05T05:50:17;26.40;98.20
306;DHT22;137;48.578;9.180;2022-08-05T05:52:45;26.60;98.20
306;DHT22;137;48.578;9.180;2022-08-05T05:55:13;26.70;98.20
306;DHT22;137;48.578;9.180;2022-08-05T05:57:42;26.90;98.20
306;DHT22;137;48.578;9.180;2022-08-05T06:00:12;27.00;98.20
306;DHT22;137;48.578;9.180;2022-08-05T06:02:39;27.10;98.20
306;DHT22;137;48.578;9.180;2022-08-05T06:05:07;27.00;98.20
306;DHT22;137;48.578;9.180;2022-08-05T06:07:35;26.90;98.20
306;DHT22;137;48.578;9.180;2022-08-05T06:10:02;26.70;98.20
306;DHT22;137;48.578;9.180;2022-08-05T06:12:29;26.60;98.20
306;DHT22;137;48.578;9.180;2022-08-05T06:14:59;26.50;98.20
306;DHT22;137;48.578;9.180;2022-08-05T06:17:26;26.50;98.20
306;DHT22;137;48.578;9.180;2022-08-05T06:19:53;26.60;98.20
306;DHT22;137;48.578;9.180;2022-08-05T06:22:22;26.70;98.20
306;DHT22;137;48.578;9.180;2022-08-05T06:24:50;26.60;98.20
306;DHT22;137;48.578;9.180;2022-08-05T06:27:16;26.50;98.20
306;DHT22;137;48.578;9.180;2022-08-05T06:29:43;26.60;98.20
306;DHT22;137;48.578;9.180;2022-08-05T06:32:12;26.70;98.20
306;DHT22;137;48.578;9.180;2022-08-05T06:34:39;26.80;98.20
306;DHT22;137;48.578;9.180;2022-08-05T06:37:06;26.90;98.20
306;DHT22;137;48.578;9.180;2022-08-05T06:39:33;27.10;98.20
306;DHT22;137;48.578;9.180;2022-08-05T06:42:01;27.10;98.20
306;DHT22;137;48.578;9.180;2022-08-05T06:44:28;26.80;98.20
306;DHT22;137;48.578;9.180;2022-08-05T06:46:55;26.90;98.20
306;DHT22;137;48.578;9.180;2022-08-05T06:49:24;26.90;98.20
306;DHT22;137;48.578;9.180;2022-08-05T06:51:51;27.00;98.20
306;DHT22;137;48.578;9.180;2022-08-05T06:54:17;27.30;98.20
306;DHT22;137;48.578;9.180;2022-08-05T06:56:44;27.50;98.20
306;DHT22;137;48.578;9.180;2022-08-05T06:59:11;27.80;98.20
306;DHT22;137;48.578;9.180;2022-08-05T07:01:39;28.00;98.20
306;DHT22;137;48.578;9.180;2022-08-05T07:04:06;28.20;98.20
306;DHT22;137;48.578;9.180;2022-08-05T07:06:34;28.40;98.20
306;DHT22;137;48.578;9.180;2022-08-05T07:09:02;28.70;98.20
306;DHT22;137;48.578;9.180;2022-08-05T07:11:29;28.70;98.20
306;DHT22;137;48.578;9.180;2022-08-05T07:13:56;28.80;98.20
306;DHT22;137;48.578;9.180;2022-08-05T07:16:41;28.70;98.20
306;DHT22;137;48.578;9.180;2022-08-05T07:19:18;28.30;98.20
306;DHT22;137;48.578;9.180;2022-08-05T07:21:47;28.30;98.20
306;DHT22;137;48.578;9.180;2022-08-05T07:24:14;28.40;98.20
306;DHT22;137;48.578;9.180;2022-08-05T07:26:42;28.20;98.20
306;DHT22;137;48.578;9.180;2022-08-05T07:29:09;28.20;98.20
306;DHT22;137;48.578;9.180;2022-08-05T07:31:36;28.40;98.20
306;DHT22;137;48.578;9.180;2022-08-05T07:34:03;28.60;98.20
306;DHT22;137;48.578;9.180;2022-08-05T07:36:30;28.90;98.20
306;DHT22;137;48.578;9.180;2022-08-05T07:39:00;29.30;98.20
306;DHT22;137;48.578;9.180;2022-08-05T07:41:27;29.00;98.20
306;DHT22;137;48.578;9.180;2022-08-05T07:43:56;29.10;98.20
306;DHT22;137;48.578;9.180;2022-08-05T07:46:24;29.00;98.20
306;DHT22;137;48.578;9.180;2022-08-05T07:48:51;29.20;98.20
306;DHT22;137;48.578;9.180;2022-08-05T07:51:18;29.20;98.20
306;DHT22;137;48.578;9.180;2022-08-05T07:53:44;28.90;98.20
306;DHT22;137;48.578;9.180;2022-08-05T07:56:13;28.90;98.20
306;DHT22;137;48.578;9.180;2022-08-05T07:58:39;28.80;98.20
306;DHT22;137;48.578;9.180;2022-08-05T08:01:06;29.00;98.20
306;DHT22;137;48.578;9.180;2022-08-05T08:03:33;29.00;98.20
306;DHT22;137;48.578;9.180;2022-08-05T08:06:00;28.90;98.20
306;DHT22;137;48.578;9.180;2022-08-05T08:08:27;29.20;98.20
306;DHT22;137;48.578;9.180;2022-08-05T08:10:54;29.50;98.20
306;DHT22;137;48.578;9.180;2022-08-05T08:13:22;29.60;98.20
306;DHT22;137;48.578;9.180;2022-08-05T08:15:49;29.80;98.20
306;DHT22;137;48.578;9.180;2022-08-05T08:18:16;30.10;98.20
306;DHT22;137;48.578;9.180;2022-08-05T08:20:43;30.30;98.20
306;DHT22;137;48.578;9.180;2022-08-05T08:23:09;30.40;98.20
306;DHT22;137;48.578;9.180;2022-08-05T08:25:36;30.70;97.90
306;DHT22;137;48.578;9.180;2022-08-05T08:28:03;30.60;97.90
306;DHT22;137;48.578;9.180;2022-08-05T08:30:31;30.70;97.90
306;DHT22;137;48.578;9.180;2022-08-05T08:32:58;30.90;96.70
306;DHT22;137;48.578;9.180;2022-08-05T08:35:25;30.70;95.10
306;DHT22;137;48.578;9.180;2022-08-05T08:37:52;31.00;95.00
306;DHT22;137;48.578;9.180;2022-08-05T08:40:19;31.10;93.80
306;DHT22;137;48.578;9.180;2022-08-05T08:42:50;31.20;92.70
306;DHT22;137;48.578;9.180;2022-08-05T08:45:18;31.00;92.50
306;DHT22;137;48.578;9.180;2022-08-05T08:47:49;31.00;92.40
306;DHT22;137;48.578;9.180;2022-08-05T08:50:18;30.80;92.40
306;DHT22;137;48.578;9.180;2022-08-05T08:52:49;30.90;91.90
306;DHT22;137;48.578;9.180;2022-08-05T08:55:18;31.10;91.30
306;DHT22;137;48.578;9.180;2022-08-05T08:57:46;31.20;91.80
306;DHT22;137;48.578;9.180;2022-08-05T09:00:13;31.30;91.30
306;DHT22;137;48.578;9.180;2022-08-05T09:02:41;31.90;90.10
306;DHT22;137;48.578;9.180;2022-08-05T09:05:10;32.00;89.30
306;DHT22;137;48.578;9.180;2022-08-05T09:07:38;31.60;90.00
306;DHT22;137;48.578;9.180;2022-08-05T09:10:05;31.30;90.40
306;DHT22;137;48.578;9.180;2022-08-05T09:12:33;31.10;90.50
306;DHT22;137;48.578;9.180;2022-08-05T09:15:01;30.80;91.10
306;DHT22;137;48.578;9.180;2022-08-05T09:17:29;30.80;90.90
306;DHT22;137;48.578;9.180;2022-08-05T09:19:56;30.80;91.60
306;DHT22;137;48.578;9.180;2022-08-05T09:22:25;30.80;91.70
306;DHT22;137;48.578;9.180;2022-08-05T09:24:58;30.70;92.30
306;DHT22;137;48.578;9.180;2022-08-05T09:27:31;31.10;91.90
306;DHT22;137;48.578;9.180;2022-08-05T09:29:58;32.00;91.00
306;DHT22;137;48.578;9.180;2022-08-05T09:32:33;32.40;89.70
306;DHT22;137;48.578;9.180;2022-08-05T09:35:08;32.50;89.10
306;DHT22;137;48.578;9.180;2022-08-05T09:37:47;32.50;89.10
306;DHT22;137;48.578;9.180;2022-08-05T09:40:31;32.50;88.20
306;DHT22;137;48.578;9.180;2022-08-05T09:42:59;32.30;88.60
306;DHT22;137;48.578;9.180;2022-08-05T09:45:37;32.20;89.60
306;DHT22;137;48.578;9.180;2022-08-05T09:48:24;32.00;88.90
306;DHT22;137;48.578;9.180;2022-08-05T09:50:53;31.70;89.60
306;DHT22;137;48.578;9.180;2022-08-05T09:53:22;32.10;89.70
306;DHT22;137;48.578;9.180;2022-08-05T09:55:54;32.70;88.30
306;DHT22;137;48.578;9.180;2022-08-05T09:58:22;33.30;86.40
306;DHT22;137;48.578;9.180;2022-08-05T10:00:55;33.50;86.00
306;DHT22;137;48.578;9.180;2022-08-05T10:03:22;34.20;85.60
306;DHT22;137;48.578;9.180;2022-08-05T10:06:06;34.50;84.70
306;DHT22;137;48.578;9.180;2022-08-05T10:08:36;34.40;84.50
306;DHT22;137;48.578;9.180;2022-08-05T10:11:13;33.40;85.70
306;DHT22;137;48.578;9.180;2022-08-05T10:13:42;33.00;87.70
306;DHT22;137;48.578;9.180;2022-08-05T10:16:28;32.60;87.60
306;DHT22;137;48.578;9.180;2022-08-05T10:18:55;32.60;88.10
306;DHT22;137;48.578;9.180;2022-08-05T10:21:22;33.30;87.50
306;DHT22;137;48.578;9.180;2022-08-05T10:23:52;33.50;85.70
306;DHT22;137;48.578;9.180;2022-08-05T10:26:19;34.00;85.20
306;DHT22;137;48.578;9.180;2022-08-05T10:28:46;34.30;83.80
306;DHT22;137;48.578;9.180;2022-08-05T10:31:16;34.50;83.80
306;DHT22;137;48.578;9.180;2022-08-05T10:33:43;34.40;84.60
306;DHT22;137;48.578;9.180;2022-08-05T10:36:10;34.40;84.80
306;DHT22;137;48.578;9.180;2022-08-05T10:38:41;34.30;83.70
306;DHT22;137;48.578;9.180;2022-08-05T10:41:16;33.80;84.40
306;DHT22;137;48.578;9.180;2022-08-05T10:43:50;33.40;85.60
306;DHT22;137;48.578;9.180;2022-08-05T10:46:20;33.30;86.80
306;DHT22;137;48.578;9.180;2022-08-05T10:48:48;33.60;86.20
306;DHT22;137;48.578;9.180;2022-08-05T10:51:17;33.90;85.50
306;DHT22;137;48.578;9.180;2022-08-05T10:53:51;34.00;86.00
306;DHT22;137;48.578;9.180;2022-08-05T10:56:21;34.30;84.80
306;DHT22;137;48.578;9.180;2022-08-05T10:59:00;34.50;84.30
306;DHT22;137;48.578;9.180;2022-08-05T11:01:30;34.30;84.00
306;DHT22;137;48.578;9.180;2022-08-05T11:04:08;34.40;83.50
306;DHT22;137;48.578;9.180;2022-08-05T11:07:03;34.50;83.20
306;DHT22;137;48.578;9.180;2022-08-05T11:09:42;34.70;84.50
306;DHT22;137;48.578;9.180;2022-08-05T11:12:42;35.20;82.90
306;DHT22;137;48.578;9.180;2022-08-05T11:15:17;35.80;82.20
306;DHT22;137;48.578;9.180;2022-08-05T11:17:45;36.20;81.40
306;DHT22;137;48.578;9.180;2022-08-05T11:20:33;36.60;78.50
306;DHT22;137;48.578;9.180;2022-08-05T11:23:27;36.20;79.00
306;DHT22;137;48.578;9.180;2022-08-05T11:26:05;35.70;81.00
306;DHT22;137;48.578;9.180;2022-08-05T11:28:42;35.80;82.20
306;DHT22;137;48.578;9.180;2022-08-05T11:31:26;35.40;81.80
306;DHT22;137;48.578;9.180;2022-08-05T11:34:04;35.30;81.80
306;DHT22;137;48.578;9.180;2022-08-05T11:36:42;35.30;82.20
306;DHT22;137;48.578;9.180;2022-08-05T11:39:12;35.60;83.00
306;DHT22;137;48.578;9.180;2022-08-05T11:41:40;36.00;82.80
306;DHT22;137;48.578;9.180;2022-08-05T11:44:09;36.30;80.50
306;DHT22;137;48.578;9.180;2022-08-05T11:46:39;36.40;80.10
306;DHT22;137;48.578;9.180;2022-08-05T11:49:09;36.50;80.10
306;DHT22;137;48.578;9.180;2022-08-05T11:51:40;36.80;79.00
306;DHT22;137;48.578;9.180;2022-08-05T11:54:08;36.80;79.10
306;DHT22;137;48.578;9.180;2022-08-05T11:56:42;36.90;78.40
306;DHT22;137;48.578;9.180;2022-08-05T11:59:17;37.30;77.40
306;DHT22;137;48.578;9.180;2022-08-05T12:01:55;36.80;77.20
306;DHT22;137;48.578;9.180;2022-08-05T12:04:22;36.30;78.60
306;DHT22;137;48.578;9.180;2022-08-05T12:06:50;36.20;78.80
306;DHT22;137;48.578;9.180;2022-08-05T12:09:22;36.40;78.50
306;DHT22;137;48.578;9.180;2022-08-05T12:11:50;36.70;77.50
306;DHT22;137;48.578;9.180;2022-08-05T12:14:19;36.50;76.70
306;DHT22;137;48.578;9.180;2022-08-05T12:16:46;36.40;77.30
306;DHT22;137;48.578;9.180;2022-08-05T12:19:14;36.10;77.40
306;DHT22;137;48.578;9.180;2022-08-05T12:21:45;35.80;78.10
306;DHT22;137;48.578;9.180;2022-08-05T12:24:14;35.90;78.20
306;DHT22;137;48.578;9.180;2022-08-05T12:26:43;35.70;78.10
306;DHT22;137;48.578;9.180;2022-08-05T12:29:11;35.90;79.80
306;DHT22;137;48.578;9.180;2022-08-05T12:31:44;36.00;78.60
306;DHT22;137;48.578;9.180;2022-08-05T12:34:12;36.60;77.60
306;DHT22;137;48.578;9.180;2022-08-05T12:36:40;36.50;77.10
306;DHT22;137;48.578;9.180;2022-08-05T12:39:07;36.50;77.70
306;DHT22;137;48.578;9.180;2022-08-05T12:41:36;36.50;78.00
306;DHT22;137;48.578;9.180;2022-08-05T12:44:05;36.60;77.60
306;DHT22;137;48.578;9.180;2022-08-05T12:46:34;36.10;77.80
306;DHT22;137;48.578;9.180;2022-08-05T12:49:07;35.70;79.40
306;DHT22;137;48.578;9.180;2022-08-05T12:51:45;36.10;80.40
306;DHT22;137;48.578;9.180;2022-08-05T12:54:18;35.80;78.80
306;DHT22;137;48.578;9.180;2022-08-05T12:56:48;35.30;79.80
306;DHT22;137;48.578;9.180;2022-08-05T12:59:17;35.30;80.70
306;DHT22;137;48.578;9.180;2022-08-05T13:01:55;35.10;80.80
306;DHT22;137;48.578;9.180;2022-08-05T13:04:27;35.20;80.00
306;DHT22;137;48.578;9.180;2022-08-05T13:06:56;35.40;80.20
306;DHT22;137;48.578;9.180;2022-08-05T13:09:24;35.30;79.80
306;DHT22;137;48.578;9.180;2022-08-05T13:12:00;35.40;81.10
306;DHT22;137;48.578;9.180;2022-08-05T13:14:27;35.50;80.60
306;DHT22;137;48.578;9.180;2022-08-05T13:16:55;35.60;80.10
306;DHT22;137;48.578;9.180;2022-08-05T13:19:24;35.50;80.10
306;DHT22;137;48.578;9.180;2022-08-05T13:21:52;35.20;81.20
306;DHT22;137;48.578;9.180;2022-08-05T13:24:21;35.00;81.40
306;DHT22;137;48.578;9.180;2022-08-05T13:26:49;35.50;81.70
306;DHT22;137;48.578;9.180;2022-08-05T13:29:16;35.70;80.20
306;DHT22;137;48.578;9.180;2022-08-05T13:31:44;36.20;79.80
306;DHT22;137;48.578;9.180;2022-08-05T13:34:11;36.80;78.50
306;DHT22;137;48.578;9.180;2022-08-05T13:36:38;36.50;78.50
306;DHT22;137;48.578;9.180;2022-08-05T13:39:07;36.50;79.80
306;DHT22;137;48.578;9.180;2022-08-05T13:41:34;37.00;78.20
306;DHT22;137;48.578;9.180;2022-08-05T13:44:01;37.50;76.90
306;DHT22;137;48.578;9.180;2022-08-05T13:46:28;37.30;77.70
306;DHT22;137;48.578;9.180;2022-08-05T13:48:55;37.10;77.30
306;DHT22;137;48.578;9.180;2022-08-05T13:51:30;37.50;77.90
306;DHT22;137;48.578;9.180;2022-08-05T13:53:58;38.10;77.50
306;DHT22;137;48.578;9.180;2022-08-05T13:56:26;38.10;76.10
306;DHT22;137;48.578;9.180;2022-08-05T13:58:53;38.20;76.50
306;DHT22;137;48.578;9.180;2022-08-05T14:01:21;38.00;76.10
306;DHT22;137;48.578;9.180;2022-08-05T14:03:48;37.50;76.40
306;DHT22;137;48.578;9.180;2022-08-05T14:06:28;36.90;77.00
306;DHT22;137;48.578;9.180;2022-08-05T14:08:55;35.80;78.70
306;DHT22;137;48.578;9.180;2022-08-05T14:11:23;35.50;79.70
306;DHT22;137;48.578;9.180;2022-08-05T14:13:51;35.20;81.20
306;DHT22;137;48.578;9.180;2022-08-05T14:16:18;34.60;82.40
306;DHT22;137;48.578;9.180;2022-08-05T14:18:45;34.40;82.10
306;DHT22;137;48.578;9.180;2022-08-05T14:21:12;34.30;82.20
306;DHT22;137;48.578;9.180;2022-08-05T14:23:39;34.00;82.50
306;DHT22;137;48.578;9.180;2022-08-05T14:26:05;33.60;83.10
306;DHT22;137;48.578;9.180;2022-08-05T14:28:32;33.30;83.90
306;DHT22;137;48.578;9.180;2022-08-05T14:31:00;33.20;84.30
306;DHT22;137;48.578;9.180;2022-08-05T14:33:27;33.00;85.80
306;DHT22;137;48.578;9.180;2022-08-05T14:35:56;32.80;87.70
306;DHT22;137;48.578;9.180;2022-08-05T14:38:22;32.70;88.90
306;DHT22;137;48.578;9.180;2022-08-05T14:40:49;32.60;88.20
306;DHT22;137;48.578;9.180;2022-08-05T14:43:16;32.50;88.50
306;DHT22;137;48.578;9.180;2022-08-05T14:45:43;32.60;87.80
306;DHT22;137;48.578;9.180;2022-08-05T14:48:11;32.70;87.50
306;DHT22;137;48.578;9.180;2022-08-05T14:50:38;33.00;88.70
306;DHT22;137;48.578;9.180;2022-08-05T14:53:05;33.30;89.00
306;DHT22;137;48.578;9.180;2022-08-05T14:55:32;33.60;87.40
306;DHT22;137;48.578;9.180;2022-08-05T14:57:59;33.80;87.10
306;DHT22;137;48.578;9.180;2022-08-05T15:00:25;34.30;85.60
306;DHT22;137;48.578;9.180;2022-08-05T15:02:52;34.40;84.10
306;DHT22;137;48.578;9.180;2022-08-05T15:05:21;34.60;85.30
306;DHT22;137;48.578;9.180;2022-08-05T15:07:49;35.40;83.90
306;DHT22;137;48.578;9.180;2022-08-05T15:10:16;35.60;82.60
306;DHT22;137;48.578;9.180;2022-08-05T15:12:43;35.30;82.00
306;DHT22;137;48.578;9.180;2022-08-05T15:15:10;34.80;82.90
306;DHT22;137;48.578;9.180;2022-08-05T15:17:37;34.40;83.40
306;DHT22;137;48.578;9.180;2022-08-05T15:20:05;34.00;85.20
306;DHT22;137;48.578;9.180;2022-08-05T15:22:33;33.40;86.10
306;DHT22;137;48.578;9.180;2022-08-05T15:25:00;32.90;87.90
306;DHT22;137;48.578;9.180;2022-08-05T15:27:27;32.80;90.70
306;DHT22;137;48.578;9.180;2022-08-05T15:29:54;32.20;91.20
306;DHT22;137;48.578;9.180;2022-08-05T15:32:22;31.80;93.60
306;DHT22;137;48.578;9.180;2022-08-05T15:34:48;31.50;95.50
306;DHT22;137;48.578;9.180;2022-08-05T15:37:15;31.00;97.70
306;DHT22;137;48.578;9.180;2022-08-05T15:39:44;30.60;98.20
306;DHT22;137;48.578;9.180;2022-08-05T15:42:11;30.40;98.20
306;DHT22;137;48.578;9.180;2022-08-05T15:44:39;30.10;98.20
306;DHT22;137;48.578;9.180;2022-08-05T15:47:06;30.10;98.20
306;DHT22;137;48.578;9.180;2022-08-05T15:49:34;30.20;98.20
306;DHT22;137;48.578;9.180;2022-08-05T15:52:01;30.20;98.20
306;DHT22;137;48.578;9.180;2022-08-05T15:54:27;30.20;98.20
306;DHT22;137;48.578;9.180;2022-08-05T15:56:56;30.40;98.20
306;DHT22;137;48.578;9.180;2022-08-05T15:59:22;30.40;98.20
306;DHT22;137;48.578;9.180;2022-08-05T16:01:50;30.30;98.20
306;DHT22;137;48.578;9.180;2022-08-05T16:04:17;30.20;98.20
306;DHT22;137;48.578;9.180;2022-08-05T16:06:44;30.40;98.20
306;DHT22;137;48.578;9.180;2022-08-05T16:09:11;30.00;98.20
306;DHT22;137;48.578;9.180;2022-08-05T16:11:37;29.80;98.20
306;DHT22;137;48.578;9.180;2022-08-05T16:14:06;29.80;98.20
306;DHT22;137;48.578;9.180;2022-08-05T16:16:33;29.90;98.20
306;DHT22;137;48.578;9.180;2022-08-05T16:19:00;29.90;98.20
306;DHT22;137;48.578;9.180;2022-08-05T16:21:27;29.70;98.20
306;DHT22;137;48.578;9.180;2022-08-05T16:23:54;29.80;98.20
306;DHT22;137;48.578;9.180;2022-08-05T16:26:22;30.00;98.20
306;DHT22;137;48.578;9.180;2022-08-05T16:28:49;29.90;98.20
306;DHT22;137;48.578;9.180;2022-08-05T16:31:18;29.90;98.20
306;DHT22;137;48.578;9.180;2022-08-05T16:33:45;29.80;98.20
306;DHT22;137;48.578;9.180;2022-08-05T16:36:11;29.60;98.20
306;DHT22;137;48.578;9.180;2022-08-05T16:38:38;29.50;98.20
306;DHT22;137;48.578;9.180;2022-08-05T16:41:05;29.50;98.20
306;DHT22;137;48.578;9.180;2022-08-05T16:43:33;29.10;98.20
306;DHT22;137;48.578;9.180;2022-08-05T16:46:02;29.00;98.20
306;DHT22;137;48.578;9.180;2022-08-05T16:48:30;28.90;98.20
306;DHT22;137;48.578;9.180;2022-08-05T16:50:57;28.80;98.20
306;DHT22;137;48.578;9.180;2022-08-05T16:53:24;28.70;98.20
306;DHT22;137;48.578;9.180;2022-08-05T16:55:51;28.70;98.20
306;DHT22;137;48.578;9.180;2022-08-05T16:58:18;28.60;98.20
306;DHT22;137;48.578;9.180;2022-08-05T17:00:45;28.20;98.20
306;DHT22;137;48.578;9.180;2022-08-05T17:03:12;28.10;98.20
306;DHT22;137;48.578;9.180;2022-08-05T17:05:40;28.00;98.20
306;DHT22;137;48.578;9.180;2022-08-05T17:08:07;27.90;98.20
306;DHT22;137;48.578;9.180;2022-08-05T17:10:34;27.90;98.20
306;DHT22;137;48.578;9.180;2022-08-05T17:13:01;27.90;98.20
306;DHT22;137;48.578;9.180;2022-08-05T17:15:28;27.70;98.20
306;DHT22;137;48.578;9.180;2022-08-05T17:17:55;27.80;98.20
306;DHT22;137;48.578;9.180;2022-08-05T17:20:21;27.90;98.20
306;DHT22;137;48.578;9.180;2022-08-05T17:22:50;27.70;98.20
306;DHT22;137;48.578;9.180;2022-08-05T17:25:17;27.70;98.20
306;DHT22;137;48.578;9.180;2022-08-05T17:27:44;27.50;98.20
306;DHT22;137;48.578;9.180;2022-08-05T17:30:12;27.30;98.20
306;DHT22;137;48.578;9.180;2022-08-05T17:32:39;27.50;98.20
306;DHT22;137;48.578;9.180;2022-08-05T17:35:07;27.60;98.20